CPX791 Details

Departure: Changi International Airport (WSSS)
Arrival: Kingsford Smith International Airport (YSSY)
Route: ANIT7B ANITO/M082F310 B470 PKP/N0496F310 L511 RUPKA/N0492F330 L511 TARUN T20 BRM/N0488F350 G222 AGAGO/N0483F370 G222 PKS H319 TARAL Y59 RIVET


Current Weather Information
WSSS 252330Z 04005KT 010V070 9999 FEW018 BKN300 27/25 Q1011 NOSIG
YSSY 252330Z 25013KT CAVOK 21/07 Q1015 FM2330 MOD TURB BLW 5000FT